5°C Temp
5°C Dewpoint
100% Humidity
Temperature
40 KM/H
25 MPH
22 KTS
170°
Due South

Wind Speed
Light Rain
Showers
Pressure 993.92 (hPa) - 29.35 (in)
Visibility 3.7 (mi) - 6.0 (km)

Current Conditions
EGNJ
Location 20(mi)
Metar :EGNJ 281450Z 17022KT 6000 RA SCT008 BKN015 05/05 Q0994
Fri 28th February 14:50 pm

Airport
  Metar Aviation API Data Provided by https://www.checkwx.com/ PHP scripts by weather34.com ©2020